KINS/INS METAR and TAF weather

Enter ICAO airport designator
Station Type Date Time Source
KINS METAR 2020/01/20 18:58 UTC NOAA

KINS 201858Z AUTO 00000KT 10SM FEW160 SCT190 10/M06 A3016 RMK AO2 SLP198 T01041056 $


Station Type Date Time Source
KINS Decoded METAR 2020/01/20 18:58 UTC NOAA

Indian Springs, Indian Springs Auxiliary AFLD Nellis AFB, NV, United States (KINS) 36-35N 115-40W
Jan 20, 2020 - 01:58 PM EST / 2020.01.20 1858 UTC
Wind: Calm:0
Visibility: 10 mile(s):0
Sky conditions: partly cloudy
Temperature: 50.7 F (10.4 C)
Dew Point: 21.9 F (-5.6 C)
Relative Humidity: 31%
Pressure (altimeter): 30.16 in. Hg (1021 hPa)
ob: KINS 201858Z AUTO 00000KT 10SM FEW160 SCT190 10/M06 A3016 RMK AO2 SLP198 T01041056
cycle: 19

Station Type Date Time Source
KINS TAF 2020/01/18 05:58 UTC NOAA

TAF KINS 180455Z 1805/1911 VRB06KT 9999 BKN250 QNH3020INS TX12/1823Z TNM03/1815Z

Example: see airport list